sensor_id;sensor_type;location;lat;lon;timestamp;P1;durP1;ratioP1;P2;durP2;ratioP2
11817;SDS011;5966;52.402;5.322;2022-08-19T00:00:36;5.37;;;4.30;;
11817;SDS011;5966;52.402;5.322;2022-08-19T00:03:07;5.23;;;4.50;;
11817;SDS011;5966;52.402;5.322;2022-08-19T00:05:38;4.93;;;4.40;;
11817;SDS011;5966;52.402;5.322;2022-08-19T00:08:10;5.13;;;4.67;;
11817;SDS011;5966;52.402;5.322;2022-08-19T00:10:42;4.97;;;4.47;;
11817;SDS011;5966;52.402;5.322;2022-08-19T00:13:13;5.23;;;4.53;;
11817;SDS011;5966;52.402;5.322;2022-08-19T00:15:44;5.57;;;4.90;;
11817;SDS011;5966;52.402;5.322;2022-08-19T00:18:12;4.93;;;4.53;;
11817;SDS011;5966;52.402;5.322;2022-08-19T00:20:41;5.10;;;4.43;;
11817;SDS011;5966;52.402;5.322;2022-08-19T00:23:10;4.60;;;4.20;;
11817;SDS011;5966;52.402;5.322;2022-08-19T00:25:43;6.00;;;4.87;;
11817;SDS011;5966;52.402;5.322;2022-08-19T00:28:14;5.07;;;4.67;;
11817;SDS011;5966;52.402;5.322;2022-08-19T00:30:48;5.80;;;4.70;;
11817;SDS011;5966;52.402;5.322;2022-08-19T00:33:29;4.87;;;4.47;;
11817;SDS011;5966;52.402;5.322;2022-08-19T00:36:04;4.97;;;4.47;;
11817;SDS011;5966;52.402;5.322;2022-08-19T00:38:37;4.63;;;4.23;;
11817;SDS011;5966;52.402;5.322;2022-08-19T00:41:16;5.40;;;4.57;;
11817;SDS011;5966;52.402;5.322;2022-08-19T00:44:01;6.17;;;4.90;;
11817;SDS011;5966;52.402;5.322;2022-08-19T00:46:43;5.87;;;5.00;;
11817;SDS011;5966;52.402;5.322;2022-08-19T00:49:24;5.87;;;5.10;;
11817;SDS011;5966;52.402;5.322;2022-08-19T00:52:03;6.13;;;5.53;;
11817;SDS011;5966;52.402;5.322;2022-08-19T00:54:37;6.40;;;5.43;;
11817;SDS011;5966;52.402;5.322;2022-08-19T00:57:17;5.60;;;5.10;;
11817;SDS011;5966;52.402;5.322;2022-08-19T00:59:56;5.87;;;5.27;;
11817;SDS011;5966;52.402;5.322;2022-08-19T01:02:30;6.30;;;5.33;;
11817;SDS011;5966;52.402;5.322;2022-08-19T01:05:02;6.37;;;5.77;;
11817;SDS011;5966;52.402;5.322;2022-08-19T01:07:37;5.90;;;5.30;;
11817;SDS011;5966;52.402;5.322;2022-08-19T01:10:15;5.87;;;5.10;;
11817;SDS011;5966;52.402;5.322;2022-08-19T01:12:52;6.67;;;6.00;;
11817;SDS011;5966;52.402;5.322;2022-08-19T01:15:25;6.53;;;5.93;;
11817;SDS011;5966;52.402;5.322;2022-08-19T01:18:01;6.90;;;6.27;;
11817;SDS011;5966;52.402;5.322;2022-08-19T01:20:39;7.07;;;6.47;;
11817;SDS011;5966;52.402;5.322;2022-08-19T01:23:18;7.27;;;6.57;;
11817;SDS011;5966;52.402;5.322;2022-08-19T01:26:13;7.20;;;5.80;;
11817;SDS011;5966;52.402;5.322;2022-08-19T01:28:52;6.53;;;6.03;;
11817;SDS011;5966;52.402;5.322;2022-08-19T01:31:27;7.50;;;6.80;;
11817;SDS011;5966;52.402;5.322;2022-08-19T01:34:00;7.33;;;6.70;;
11817;SDS011;5966;52.402;5.322;2022-08-19T01:36:34;7.13;;;6.50;;
11817;SDS011;5966;52.402;5.322;2022-08-19T01:39:09;8.10;;;6.63;;
11817;SDS011;5966;52.402;5.322;2022-08-19T01:41:50;8.43;;;6.67;;
11817;SDS011;5966;52.402;5.322;2022-08-19T01:44:24;7.27;;;6.67;;
11817;SDS011;5966;52.402;5.322;2022-08-19T01:47:04;7.63;;;6.93;;
11817;SDS011;5966;52.402;5.322;2022-08-19T01:49:38;7.70;;;6.90;;
11817;SDS011;5966;52.402;5.322;2022-08-19T01:52:15;7.50;;;6.77;;
11817;SDS011;5966;52.402;5.322;2022-08-19T01:54:50;9.57;;;7.07;;
11817;SDS011;5966;52.402;5.322;2022-08-19T01:57:20;11.20;;;7.73;;
11817;SDS011;5966;52.402;5.322;2022-08-19T01:59:52;8.20;;;7.47;;
11817;SDS011;5966;52.402;5.322;2022-08-19T02:02:24;12.83;;;7.33;;
11817;SDS011;5966;52.402;5.322;2022-08-19T02:04:56;7.77;;;6.97;;
11817;SDS011;5966;52.402;5.322;2022-08-19T02:07:27;8.63;;;7.23;;
11817;SDS011;5966;52.402;5.322;2022-08-19T02:10:02;8.63;;;7.27;;
11817;SDS011;5966;52.402;5.322;2022-08-19T02:12:38;7.80;;;7.07;;
11817;SDS011;5966;52.402;5.322;2022-08-19T02:15:15;7.97;;;6.33;;
11817;SDS011;5966;52.402;5.322;2022-08-19T02:17:47;7.97;;;7.00;;
11817;SDS011;5966;52.402;5.322;2022-08-19T02:20:22;8.70;;;7.43;;
11817;SDS011;5966;52.402;5.322;2022-08-19T02:22:57;8.00;;;7.30;;
11817;SDS011;5966;52.402;5.322;2022-08-19T02:25:29;8.50;;;7.70;;
11817;SDS011;5966;52.402;5.322;2022-08-19T02:27:57;7.73;;;7.03;;
11817;SDS011;5966;52.402;5.322;2022-08-19T02:30:44;8.37;;;6.87;;
11817;SDS011;5966;52.402;5.322;2022-08-19T02:33:33;7.93;;;7.13;;
11817;SDS011;5966;52.402;5.322;2022-08-19T02:36:10;8.10;;;7.33;;
11817;SDS011;5966;52.402;5.322;2022-08-19T02:38:53;7.80;;;7.10;;
11817;SDS011;5966;52.402;5.322;2022-08-19T02:41:38;7.83;;;7.13;;
11817;SDS011;5966;52.402;5.322;2022-08-19T02:44:20;8.90;;;8.10;;
11817;SDS011;5966;52.402;5.322;2022-08-19T02:47:03;8.17;;;7.47;;
11817;SDS011;5966;52.402;5.322;2022-08-19T02:49:53;8.63;;;7.83;;
11817;SDS011;5966;52.402;5.322;2022-08-19T02:52:50;8.40;;;7.50;;
11817;SDS011;5966;52.402;5.322;2022-08-19T02:55:32;10.47;;;8.13;;
11817;SDS011;5966;52.402;5.322;2022-08-19T02:58:15;9.47;;;8.57;;
11817;SDS011;5966;52.402;5.322;2022-08-19T03:00:48;10.30;;;8.17;;
11817;SDS011;5966;52.402;5.322;2022-08-19T03:03:24;10.87;;;8.23;;
11817;SDS011;5966;52.402;5.322;2022-08-19T03:06:04;8.67;;;7.80;;
11817;SDS011;5966;52.402;5.322;2022-08-19T03:08:39;9.27;;;8.37;;
11817;SDS011;5966;52.402;5.322;2022-08-19T03:11:17;9.57;;;8.43;;
11817;SDS011;5966;52.402;5.322;2022-08-19T03:13:50;11.37;;;8.00;;
11817;SDS011;5966;52.402;5.322;2022-08-19T03:16:21;9.47;;;8.53;;
11817;SDS011;5966;52.402;5.322;2022-08-19T03:18:55;9.37;;;8.57;;
11817;SDS011;5966;52.402;5.322;2022-08-19T03:21:30;9.13;;;8.33;;
11817;SDS011;5966;52.402;5.322;2022-08-19T03:24:09;9.93;;;8.97;;
11817;SDS011;5966;52.402;5.322;2022-08-19T03:27:06;8.87;;;8.07;;
11817;SDS011;5966;52.402;5.322;2022-08-19T03:30:01;9.43;;;8.50;;
11817;SDS011;5966;52.402;5.322;2022-08-19T03:32:52;9.60;;;8.70;;
11817;SDS011;5966;52.402;5.322;2022-08-19T03:36:03;9.90;;;8.90;;
11817;SDS011;5966;52.402;5.322;2022-08-19T03:38:35;9.87;;;8.97;;
11817;SDS011;5966;52.402;5.322;2022-08-19T03:41:06;10.07;;;9.17;;
11817;SDS011;5966;52.402;5.322;2022-08-19T03:43:36;11.33;;;9.70;;
11817;SDS011;5966;52.402;5.322;2022-08-19T03:46:10;9.80;;;8.80;;
11817;SDS011;5966;52.402;5.322;2022-08-19T03:48:41;10.23;;;9.33;;
11817;SDS011;5966;52.402;5.322;2022-08-19T03:51:15;10.93;;;9.83;;
11817;SDS011;5966;52.402;5.322;2022-08-19T03:53:57;11.17;;;10.17;;
11817;SDS011;5966;52.402;5.322;2022-08-19T03:56:28;11.07;;;9.83;;
11817;SDS011;5966;52.402;5.322;2022-08-19T03:58:59;11.83;;;10.63;;
11817;SDS011;5966;52.402;5.322;2022-08-19T04:01:34;11.63;;;10.53;;
11817;SDS011;5966;52.402;5.322;2022-08-19T04:04:05;10.80;;;9.80;;
11817;SDS011;5966;52.402;5.322;2022-08-19T04:06:37;12.47;;;11.17;;
11817;SDS011;5966;52.402;5.322;2022-08-19T04:09:06;12.67;;;11.37;;
11817;SDS011;5966;52.402;5.322;2022-08-19T04:11:38;11.83;;;10.73;;
11817;SDS011;5966;52.402;5.322;2022-08-19T04:14:14;12.33;;;11.13;;
11817;SDS011;5966;52.402;5.322;2022-08-19T04:16:49;12.00;;;10.83;;
11817;SDS011;5966;52.402;5.322;2022-08-19T04:19:19;12.40;;;11.00;;
11817;SDS011;5966;52.402;5.322;2022-08-19T04:21:53;11.87;;;10.77;;
11817;SDS011;5966;52.402;5.322;2022-08-19T04:24:22;10.63;;;9.63;;
11817;SDS011;5966;52.402;5.322;2022-08-19T04:26:59;11.53;;;10.33;;
11817;SDS011;5966;52.402;5.322;2022-08-19T04:29:30;11.50;;;10.07;;
11817;SDS011;5966;52.402;5.322;2022-08-19T04:32:02;10.03;;;9.03;;
11817;SDS011;5966;52.402;5.322;2022-08-19T04:34:35;10.20;;;9.33;;
11817;SDS011;5966;52.402;5.322;2022-08-19T04:37:24;10.87;;;9.50;;
11817;SDS011;5966;52.402;5.322;2022-08-19T04:40:00;10.53;;;9.50;;
11817;SDS011;5966;52.402;5.322;2022-08-19T04:42:49;10.17;;;9.27;;
11817;SDS011;5966;52.402;5.322;2022-08-19T04:45:20;9.80;;;8.90;;
11817;SDS011;5966;52.402;5.322;2022-08-19T04:48:12;9.47;;;8.67;;
11817;SDS011;5966;52.402;5.322;2022-08-19T04:50:52;10.10;;;9.10;;
11817;SDS011;5966;52.402;5.322;2022-08-19T04:53:31;10.17;;;9.27;;
11817;SDS011;5966;52.402;5.322;2022-08-19T04:56:09;10.37;;;9.37;;
11817;SDS011;5966;52.402;5.322;2022-08-19T04:58:46;10.10;;;9.10;;
11817;SDS011;5966;52.402;5.322;2022-08-19T05:01:24;10.37;;;9.27;;
11817;SDS011;5966;52.402;5.322;2022-08-19T05:04:00;10.40;;;8.43;;
11817;SDS011;5966;52.402;5.322;2022-08-19T05:06:35;9.57;;;8.77;;
11817;SDS011;5966;52.402;5.322;2022-08-19T05:09:10;10.67;;;9.67;;
11817;SDS011;5966;52.402;5.322;2022-08-19T05:11:49;9.70;;;8.50;;
11817;SDS011;5966;52.402;5.322;2022-08-19T05:14:39;10.33;;;8.87;;
11817;SDS011;5966;52.402;5.322;2022-08-19T05:17:18;9.57;;;8.67;;
11817;SDS011;5966;52.402;5.322;2022-08-19T05:20:06;10.50;;;9.00;;
11817;SDS011;5966;52.402;5.322;2022-08-19T05:23:26;10.30;;;9.30;;
11817;SDS011;5966;52.402;5.322;2022-08-19T05:26:32;9.80;;;8.80;;
11817;SDS011;5966;52.402;5.322;2022-08-19T05:29:01;10.80;;;9.37;;
11817;SDS011;5966;52.402;5.322;2022-08-19T05:31:36;10.73;;;9.33;;
11817;SDS011;5966;52.402;5.322;2022-08-19T05:34:07;10.43;;;9.43;;
11817;SDS011;5966;52.402;5.322;2022-08-19T05:36:47;10.87;;;9.70;;
11817;SDS011;5966;52.402;5.322;2022-08-19T05:39:26;11.23;;;10.00;;
11817;SDS011;5966;52.402;5.322;2022-08-19T05:42:19;11.07;;;9.97;;
11817;SDS011;5966;52.402;5.322;2022-08-19T05:45:51;11.20;;;9.77;;
11817;SDS011;5966;52.402;5.322;2022-08-19T05:49:07;12.63;;;10.60;;
11817;SDS011;5966;52.402;5.322;2022-08-19T05:52:09;13.67;;;11.80;;
11817;SDS011;5966;52.402;5.322;2022-08-19T05:55:10;13.47;;;12.07;;
11817;SDS011;5966;52.402;5.322;2022-08-19T05:58:04;14.43;;;11.77;;
11817;SDS011;5966;52.402;5.322;2022-08-19T06:00:58;15.10;;;13.33;;
11817;SDS011;5966;52.402;5.322;2022-08-19T06:03:46;15.60;;;13.10;;
11817;SDS011;5966;52.402;5.322;2022-08-19T06:06:51;15.10;;;13.30;;
11817;SDS011;5966;52.402;5.322;2022-08-19T06:10:31;16.90;;;14.20;;
11817;SDS011;5966;52.402;5.322;2022-08-19T06:16:12;20.93;;;16.07;;
11817;SDS011;5966;52.402;5.322;2022-08-19T06:18:50;18.00;;;15.07;;
11817;SDS011;5966;52.402;5.322;2022-08-19T06:21:38;17.73;;;15.27;;
11817;SDS011;5966;52.402;5.322;2022-08-19T06:24:40;18.83;;;15.07;;
11817;SDS011;5966;52.402;5.322;2022-08-19T06:27:18;18.50;;;15.70;;
11817;SDS011;5966;52.402;5.322;2022-08-19T06:30:12;21.27;;;16.57;;
11817;SDS011;5966;52.402;5.322;2022-08-19T06:33:10;20.53;;;16.73;;
11817;SDS011;5966;52.402;5.322;2022-08-19T06:36:24;20.87;;;16.97;;
11817;SDS011;5966;52.402;5.322;2022-08-19T06:39:25;23.60;;;18.43;;
11817;SDS011;5966;52.402;5.322;2022-08-19T06:42:14;23.60;;;18.07;;
11817;SDS011;5966;52.402;5.322;2022-08-19T06:44:51;26.30;;;19.53;;
11817;SDS011;5966;52.402;5.322;2022-08-19T06:47:39;26.00;;;19.63;;
11817;SDS011;5966;52.402;5.322;2022-08-19T06:50:16;27.37;;;19.67;;
11817;SDS011;5966;52.402;5.322;2022-08-19T06:53:08;26.20;;;20.20;;
11817;SDS011;5966;52.402;5.322;2022-08-19T06:56:00;25.67;;;19.57;;
11817;SDS011;5966;52.402;5.322;2022-08-19T06:58:41;26.53;;;19.40;;
11817;SDS011;5966;52.402;5.322;2022-08-19T07:01:40;29.23;;;19.93;;
11817;SDS011;5966;52.402;5.322;2022-08-19T07:04:15;32.43;;;21.23;;
11817;SDS011;5966;52.402;5.322;2022-08-19T07:07:19;26.63;;;20.03;;
11817;SDS011;5966;52.402;5.322;2022-08-19T07:10:04;28.17;;;20.47;;
11817;SDS011;5966;52.402;5.322;2022-08-19T07:12:51;28.27;;;20.63;;
11817;SDS011;5966;52.402;5.322;2022-08-19T07:15:27;29.97;;;20.87;;
11817;SDS011;5966;52.402;5.322;2022-08-19T07:18:14;28.20;;;20.70;;
11817;SDS011;5966;52.402;5.322;2022-08-19T07:21:18;29.27;;;21.93;;
11817;SDS011;5966;52.402;5.322;2022-08-19T07:24:11;32.20;;;22.37;;
11817;SDS011;5966;52.402;5.322;2022-08-19T07:26:53;33.67;;;22.37;;
11817;SDS011;5966;52.402;5.322;2022-08-19T07:29:53;28.13;;;19.83;;
11817;SDS011;5966;52.402;5.322;2022-08-19T07:32:29;29.20;;;20.37;;
11817;SDS011;5966;52.402;5.322;2022-08-19T07:35:13;28.07;;;21.80;;
11817;SDS011;5966;52.402;5.322;2022-08-19T07:38:04;27.67;;;19.90;;
11817;SDS011;5966;52.402;5.322;2022-08-19T07:41:06;33.97;;;22.20;;
11817;SDS011;5966;52.402;5.322;2022-08-19T07:43:55;30.37;;;21.47;;
11817;SDS011;5966;52.402;5.322;2022-08-19T07:46:50;29.23;;;20.77;;
11817;SDS011;5966;52.402;5.322;2022-08-19T07:49:33;32.97;;;22.83;;
11817;SDS011;5966;52.402;5.322;2022-08-19T07:52:06;36.73;;;22.67;;
11817;SDS011;5966;52.402;5.322;2022-08-19T07:54:40;34.53;;;22.67;;
11817;SDS011;5966;52.402;5.322;2022-08-19T07:58:02;31.50;;;21.33;;
11817;SDS011;5966;52.402;5.322;2022-08-19T08:00:48;37.63;;;21.87;;
11817;SDS011;5966;52.402;5.322;2022-08-19T08:03:28;32.77;;;22.07;;
11817;SDS011;5966;52.402;5.322;2022-08-19T08:06:37;35.93;;;22.97;;
11817;SDS011;5966;52.402;5.322;2022-08-19T08:09:35;30.57;;;20.40;;
11817;SDS011;5966;52.402;5.322;2022-08-19T08:12:17;30.17;;;19.27;;
11817;SDS011;5966;52.402;5.322;2022-08-19T08:15:01;31.30;;;20.03;;
11817;SDS011;5966;52.402;5.322;2022-08-19T08:18:14;29.53;;;19.43;;
11817;SDS011;5966;52.402;5.322;2022-08-19T08:21:16;28.13;;;18.20;;
11817;SDS011;5966;52.402;5.322;2022-08-19T08:24:00;28.30;;;19.07;;
11817;SDS011;5966;52.402;5.322;2022-08-19T08:26:54;30.37;;;20.13;;
11817;SDS011;5966;52.402;5.322;2022-08-19T08:29:32;32.90;;;21.13;;
11817;SDS011;5966;52.402;5.322;2022-08-19T08:32:04;27.03;;;18.67;;
11817;SDS011;5966;52.402;5.322;2022-08-19T08:34:57;27.73;;;19.07;;
11817;SDS011;5966;52.402;5.322;2022-08-19T08:37:31;30.03;;;19.70;;
11817;SDS011;5966;52.402;5.322;2022-08-19T08:40:20;27.73;;;20.50;;
11817;SDS011;5966;52.402;5.322;2022-08-19T08:43:11;29.17;;;20.70;;
11817;SDS011;5966;52.402;5.322;2022-08-19T08:46:21;28.60;;;20.27;;
11817;SDS011;5966;52.402;5.322;2022-08-19T08:49:36;27.70;;;19.07;;
11817;SDS011;5966;52.402;5.322;2022-08-19T08:52:33;29.33;;;19.00;;
11817;SDS011;5966;52.402;5.322;2022-08-19T08:55:25;28.73;;;18.97;;
11817;SDS011;5966;52.402;5.322;2022-08-19T08:58:09;26.83;;;19.53;;
11817;SDS011;5966;52.402;5.322;2022-08-19T09:01:13;31.30;;;19.70;;
11817;SDS011;5966;52.402;5.322;2022-08-19T09:04:14;26.13;;;19.60;;
11817;SDS011;5966;52.402;5.322;2022-08-19T09:07:09;33.40;;;20.30;;
11817;SDS011;5966;52.402;5.322;2022-08-19T09:10:36;30.07;;;20.80;;
11817;SDS011;5966;52.402;5.322;2022-08-19T09:14:08;30.60;;;20.53;;
11817;SDS011;5966;52.402;5.322;2022-08-19T09:17:02;28.13;;;21.03;;
11817;SDS011;5966;52.402;5.322;2022-08-19T09:19:34;28.60;;;20.43;;
11817;SDS011;5966;52.402;5.322;2022-08-19T09:22:07;31.00;;;21.00;;
11817;SDS011;5966;52.402;5.322;2022-08-19T09:25:03;29.50;;;18.83;;
11817;SDS011;5966;52.402;5.322;2022-08-19T09:27:35;27.03;;;18.87;;
11817;SDS011;5966;52.402;5.322;2022-08-19T09:30:11;25.50;;;18.47;;
11817;SDS011;5966;52.402;5.322;2022-08-19T09:32:49;25.00;;;19.17;;
11817;SDS011;5966;52.402;5.322;2022-08-19T09:35:24;26.50;;;19.27;;
11817;SDS011;5966;52.402;5.322;2022-08-19T09:38:18;24.03;;;18.80;;
11817;SDS011;5966;52.402;5.322;2022-08-19T09:40:47;23.30;;;17.17;;
11817;SDS011;5966;52.402;5.322;2022-08-19T09:43:18;21.67;;;17.17;;
11817;SDS011;5966;52.402;5.322;2022-08-19T09:46:06;26.73;;;17.60;;
11817;SDS011;5966;52.402;5.322;2022-08-19T09:48:35;22.80;;;17.40;;
11817;SDS011;5966;52.402;5.322;2022-08-19T09:51:05;26.53;;;19.13;;
11817;SDS011;5966;52.402;5.322;2022-08-19T09:53:41;26.57;;;18.93;;
11817;SDS011;5966;52.402;5.322;2022-08-19T09:56:11;23.27;;;16.97;;
11817;SDS011;5966;52.402;5.322;2022-08-19T09:58:46;22.00;;;17.23;;
11817;SDS011;5966;52.402;5.322;2022-08-19T10:01:17;21.23;;;17.03;;
11817;SDS011;5966;52.402;5.322;2022-08-19T10:03:49;22.23;;;17.83;;
11817;SDS011;5966;52.402;5.322;2022-08-19T10:06:26;26.13;;;17.57;;
11817;SDS011;5966;52.402;5.322;2022-08-19T10:09:12;22.00;;;16.43;;
11817;SDS011;5966;52.402;5.322;2022-08-19T10:12:00;23.83;;;18.23;;
11817;SDS011;5966;52.402;5.322;2022-08-19T10:14:30;23.73;;;17.73;;
11817;SDS011;5966;52.402;5.322;2022-08-19T10:17:00;28.57;;;19.80;;
11817;SDS011;5966;52.402;5.322;2022-08-19T10:19:46;28.07;;;20.60;;
11817;SDS011;5966;52.402;5.322;2022-08-19T10:22:21;24.33;;;18.52;;
11817;SDS011;5966;52.402;5.322;2022-08-19T10:24:57;26.00;;;20.10;;
11817;SDS011;5966;52.402;5.322;2022-08-19T10:27:27;27.93;;;20.07;;
11817;SDS011;5966;52.402;5.322;2022-08-19T10:30:00;28.30;;;21.20;;
11817;SDS011;5966;52.402;5.322;2022-08-19T10:32:28;26.67;;;20.63;;
11817;SDS011;5966;52.402;5.322;2022-08-19T10:34:59;29.07;;;23.07;;
11817;SDS011;5966;52.402;5.322;2022-08-19T10:37:31;24.87;;;20.27;;
11817;SDS011;5966;52.402;5.322;2022-08-19T10:40:00;29.43;;;21.23;;
11817;SDS011;5966;52.402;5.322;2022-08-19T10:42:30;31.58;;;22.52;;
11817;SDS011;5966;52.402;5.322;2022-08-19T10:45:00;27.07;;;22.43;;
11817;SDS011;5966;52.402;5.322;2022-08-19T10:47:30;24.87;;;19.83;;
11817;SDS011;5966;52.402;5.322;2022-08-19T10:50:00;25.00;;;20.38;;
11817;SDS011;5966;52.402;5.322;2022-08-19T10:52:46;27.20;;;21.63;;
11817;SDS011;5966;52.402;5.322;2022-08-19T10:55:16;31.70;;;23.63;;
11817;SDS011;5966;52.402;5.322;2022-08-19T10:58:04;25.13;;;20.30;;
11817;SDS011;5966;52.402;5.322;2022-08-19T11:00:38;28.80;;;23.17;;
11817;SDS011;5966;52.402;5.322;2022-08-19T11:03:09;26.60;;;21.05;;
11817;SDS011;5966;52.402;5.322;2022-08-19T11:05:38;29.30;;;22.23;;
11817;SDS011;5966;52.402;5.322;2022-08-19T11:08:07;26.63;;;20.92;;
11817;SDS011;5966;52.402;5.322;2022-08-19T11:10:48;25.67;;;19.90;;
11817;SDS011;5966;52.402;5.322;2022-08-19T11:13:26;25.33;;;20.52;;
11817;SDS011;5966;52.402;5.322;2022-08-19T11:16:04;22.67;;;19.95;;
11817;SDS011;5966;52.402;5.322;2022-08-19T11:18:39;27.77;;;21.03;;
11817;SDS011;5966;52.402;5.322;2022-08-19T11:21:11;28.38;;;21.65;;
11817;SDS011;5966;52.402;5.322;2022-08-19T11:23:45;26.10;;;20.88;;
11817;SDS011;5966;52.402;5.322;2022-08-19T11:26:15;27.00;;;20.35;;
11817;SDS011;5966;52.402;5.322;2022-08-19T11:28:45;22.60;;;19.00;;
11817;SDS011;5966;52.402;5.322;2022-08-19T11:31:19;21.40;;;18.60;;
11817;SDS011;5966;52.402;5.322;2022-08-19T11:33:55;24.88;;;18.92;;
11817;SDS011;5966;52.402;5.322;2022-08-19T11:36:26;20.08;;;17.67;;
11817;SDS011;5966;52.402;5.322;2022-08-19T11:39:02;21.52;;;17.38;;
11817;SDS011;5966;52.402;5.322;2022-08-19T11:41:33;20.27;;;16.08;;
11817;SDS011;5966;52.402;5.322;2022-08-19T11:44:03;20.45;;;16.50;;
11817;SDS011;5966;52.402;5.322;2022-08-19T11:46:37;20.10;;;15.85;;
11817;SDS011;5966;52.402;5.322;2022-08-19T11:49:34;19.65;;;15.02;;
11817;SDS011;5966;52.402;5.322;2022-08-19T11:52:29;16.73;;;14.25;;
11817;SDS011;5966;52.402;5.322;2022-08-19T11:54:59;14.85;;;12.95;;
11817;SDS011;5966;52.402;5.322;2022-08-19T11:57:43;16.08;;;12.65;;
11817;SDS011;5966;52.402;5.322;2022-08-19T12:00:21;12.48;;;10.57;;
11817;SDS011;5966;52.402;5.322;2022-08-19T12:03:05;10.93;;;8.50;;
11817;SDS011;5966;52.402;5.322;2022-08-19T12:05:36;7.18;;;6.35;;
11817;SDS011;5966;52.402;5.322;2022-08-19T12:08:08;9.20;;;5.95;;
11817;SDS011;5966;52.402;5.322;2022-08-19T12:10:57;7.45;;;5.55;;
11817;SDS011;5966;52.402;5.322;2022-08-19T12:13:39;7.50;;;5.80;;
11817;SDS011;5966;52.402;5.322;2022-08-19T12:16:19;9.05;;;5.30;;
11817;SDS011;5966;52.402;5.322;2022-08-19T12:19:20;8.63;;;5.47;;
11817;SDS011;5966;52.402;5.322;2022-08-19T12:24:32;7.53;;;5.30;;
11817;SDS011;5966;52.402;5.322;2022-08-19T12:27:05;8.48;;;5.20;;
11817;SDS011;5966;52.402;5.322;2022-08-19T12:29:58;6.05;;;5.05;;
11817;SDS011;5966;52.402;5.322;2022-08-19T12:35:05;5.57;;;4.50;;
11817;SDS011;5966;52.402;5.322;2022-08-19T12:38:05;7.03;;;4.32;;
11817;SDS011;5966;52.402;5.322;2022-08-19T12:40:43;4.95;;;4.30;;
11817;SDS011;5966;52.402;5.322;2022-08-19T12:43:36;6.00;;;3.88;;
11817;SDS011;5966;52.402;5.322;2022-08-19T12:46:09;6.03;;;3.72;;
11817;SDS011;5966;52.402;5.322;2022-08-19T12:48:43;4.90;;;3.30;;
11817;SDS011;5966;52.402;5.322;2022-08-19T12:51:18;5.60;;;3.50;;
11817;SDS011;5966;52.402;5.322;2022-08-19T12:53:48;8.20;;;3.60;;
11817;SDS011;5966;52.402;5.322;2022-08-19T12:56:23;4.95;;;3.35;;
11817;SDS011;5966;52.402;5.322;2022-08-19T12:59:00;5.33;;;3.40;;
11817;SDS011;5966;52.402;5.322;2022-08-19T13:01:48;5.13;;;2.97;;
11817;SDS011;5966;52.402;5.322;2022-08-19T13:04:19;5.57;;;3.00;;
11817;SDS011;5966;52.402;5.322;2022-08-19T13:07:07;3.53;;;2.85;;
11817;SDS011;5966;52.402;5.322;2022-08-19T13:09:37;4.47;;;3.00;;
11817;SDS011;5966;52.402;5.322;2022-08-19T13:12:12;3.83;;;2.70;;
11817;SDS011;5966;52.402;5.322;2022-08-19T13:14:50;5.63;;;2.70;;
11817;SDS011;5966;52.402;5.322;2022-08-19T13:17:36;3.92;;;2.90;;
11817;SDS011;5966;52.402;5.322;2022-08-19T13:20:06;3.88;;;3.00;;
11817;SDS011;5966;52.402;5.322;2022-08-19T13:22:52;4.32;;;2.83;;
11817;SDS011;5966;52.402;5.322;2022-08-19T13:25:28;3.60;;;2.72;;
11817;SDS011;5966;52.402;5.322;2022-08-19T13:28:19;6.40;;;3.45;;
11817;SDS011;5966;52.402;5.322;2022-08-19T13:30:54;9.00;;;5.35;;
11817;SDS011;5966;52.402;5.322;2022-08-19T13:33:40;8.63;;;4.38;;
11817;SDS011;5966;52.402;5.322;2022-08-19T13:36:20;6.53;;;4.03;;
11817;SDS011;5966;52.402;5.322;2022-08-19T13:38:59;6.07;;;3.75;;
11817;SDS011;5966;52.402;5.322;2022-08-19T13:41:27;6.30;;;3.88;;
11817;SDS011;5966;52.402;5.322;2022-08-19T13:43:57;5.60;;;3.90;;
11817;SDS011;5966;52.402;5.322;2022-08-19T13:46:28;8.18;;;4.45;;
11817;SDS011;5966;52.402;5.322;2022-08-19T13:48:59;6.80;;;3.85;;
11817;SDS011;5966;52.402;5.322;2022-08-19T13:51:27;6.18;;;3.63;;
11817;SDS011;5966;52.402;5.322;2022-08-19T13:53:58;6.05;;;3.38;;
11817;SDS011;5966;52.402;5.322;2022-08-19T13:56:27;5.38;;;4.05;;
11817;SDS011;5966;52.402;5.322;2022-08-19T13:58:55;4.18;;;3.30;;
11817;SDS011;5966;52.402;5.322;2022-08-19T14:01:24;8.07;;;3.80;;
11817;SDS011;5966;52.402;5.322;2022-08-19T14:03:53;6.10;;;3.27;;
11817;SDS011;5966;52.402;5.322;2022-08-19T14:06:21;5.60;;;3.42;;
11817;SDS011;5966;52.402;5.322;2022-08-19T14:08:51;3.85;;;3.03;;
11817;SDS011;5966;52.402;5.322;2022-08-19T14:11:23;5.20;;;3.37;;
11817;SDS011;5966;52.402;5.322;2022-08-19T14:13:53;6.80;;;3.22;;
11817;SDS011;5966;52.402;5.322;2022-08-19T14:16:22;4.10;;;3.20;;
11817;SDS011;5966;52.402;5.322;2022-08-19T14:18:55;4.55;;;2.67;;
11817;SDS011;5966;52.402;5.322;2022-08-19T14:21:27;3.03;;;2.10;;
11817;SDS011;5966;52.402;5.322;2022-08-19T14:23:59;2.08;;;1.73;;
11817;SDS011;5966;52.402;5.322;2022-08-19T14:26:31;2.97;;;2.00;;
11817;SDS011;5966;52.402;5.322;2022-08-19T14:29:02;3.78;;;2.60;;
11817;SDS011;5966;52.402;5.322;2022-08-19T14:31:30;2.83;;;2.03;;
11817;SDS011;5966;52.402;5.322;2022-08-19T14:34:01;2.25;;;2.05;;
11817;SDS011;5966;52.402;5.322;2022-08-19T14:36:30;2.67;;;2.13;;
11817;SDS011;5966;52.402;5.322;2022-08-19T14:39:05;4.53;;;3.28;;
11817;SDS011;5966;52.402;5.322;2022-08-19T14:41:42;3.55;;;2.45;;
11817;SDS011;5966;52.402;5.322;2022-08-19T14:44:12;2.25;;;2.03;;
11817;SDS011;5966;52.402;5.322;2022-08-19T14:46:42;3.78;;;2.60;;
11817;SDS011;5966;52.402;5.322;2022-08-19T14:49:14;4.00;;;2.10;;
11817;SDS011;5966;52.402;5.322;2022-08-19T14:51:45;3.70;;;2.25;;
11817;SDS011;5966;52.402;5.322;2022-08-19T14:54:14;1.90;;;1.60;;
11817;SDS011;5966;52.402;5.322;2022-08-19T14:57:05;1.48;;;1.30;;
11817;SDS011;5966;52.402;5.322;2022-08-19T14:59:33;1.30;;;1.20;;
11817;SDS011;5966;52.402;5.322;2022-08-19T15:02:02;1.40;;;1.17;;
11817;SDS011;5966;52.402;5.322;2022-08-19T15:04:57;1.40;;;1.30;;
11817;SDS011;5966;52.402;5.322;2022-08-19T15:07:40;1.00;;;1.00;;
11817;SDS011;5966;52.402;5.322;2022-08-19T15:10:19;1.42;;;1.05;;
11817;SDS011;5966;52.402;5.322;2022-08-19T15:13:02;2.55;;;1.52;;
11817;SDS011;5966;52.402;5.322;2022-08-19T15:15:33;1.77;;;1.40;;
11817;SDS011;5966;52.402;5.322;2022-08-19T15:18:09;2.85;;;1.38;;
11817;SDS011;5966;52.402;5.322;2022-08-19T15:20:44;1.90;;;1.20;;
11817;SDS011;5966;52.402;5.322;2022-08-19T15:23:16;1.27;;;1.02;;
11817;SDS011;5966;52.402;5.322;2022-08-19T15:25:48;1.45;;;1.20;;
11817;SDS011;5966;52.402;5.322;2022-08-19T15:28:23;1.77;;;1.23;;
11817;SDS011;5966;52.402;5.322;2022-08-19T15:30:57;2.25;;;1.05;;
11817;SDS011;5966;52.402;5.322;2022-08-19T15:33:50;1.27;;;0.98;;
11817;SDS011;5966;52.402;5.322;2022-08-19T15:36:25;2.60;;;1.60;;
11817;SDS011;5966;52.402;5.322;2022-08-19T15:38:56;1.20;;;1.10;;
11817;SDS011;5966;52.402;5.322;2022-08-19T15:41:30;2.22;;;1.00;;
11817;SDS011;5966;52.402;5.322;2022-08-19T15:44:05;2.30;;;1.30;;
11817;SDS011;5966;52.402;5.322;2022-08-19T15:46:39;1.58;;;1.40;;
11817;SDS011;5966;52.402;5.322;2022-08-19T15:49:14;1.48;;;1.38;;
11817;SDS011;5966;52.402;5.322;2022-08-19T15:51:46;1.55;;;1.20;;
11817;SDS011;5966;52.402;5.322;2022-08-19T15:54:17;1.95;;;1.38;;
11817;SDS011;5966;52.402;5.322;2022-08-19T15:56:48;6.40;;;1.58;;
11817;SDS011;5966;52.402;5.322;2022-08-19T15:59:38;1.80;;;1.42;;
11817;SDS011;5966;52.402;5.322;2022-08-19T16:02:29;2.28;;;1.48;;
11817;SDS011;5966;52.402;5.322;2022-08-19T16:05:21;4.47;;;1.70;;
11817;SDS011;5966;52.402;5.322;2022-08-19T16:08:10;2.20;;;1.30;;
11817;SDS011;5966;52.402;5.322;2022-08-19T16:10:39;2.15;;;1.30;;
11817;SDS011;5966;52.402;5.322;2022-08-19T16:13:14;1.60;;;1.50;;